Time;durP1;ratioP1;P1;durP2;ratioP2;P2;SDS_P1;SDS_P2;PMS_P1;PMS_P2;Temp;Humidity;BMP_temperature;BMP_pressure;BME280_temperature;BME280_humidity;BME280_pressure;Samples;Min_cycle;Max_cycle;Signal;HPM_P1;HPM_P2
2021/09/23 00:00:09;;;;;;;22.65;18.42;;;15.20;91.70;;;;;;6158571;23;20028;-84
2021/09/23 00:05:12;;;;;;;23.65;19.85;;;15.10;91.50;;;;;;6159131;23;20349;-85
2021/09/23 00:07:42;;;;;;;25.13;19.33;;;15.10;91.30;;;;;;6158766;23;20020;-85
2021/09/23 00:10:10;;;;;;;27.58;21.08;;;15.00;91.20;;;;;;6159182;23;20017;-85
2021/09/23 00:12:36;;;;;;;22.35;19.00;;;15.00;91.10;;;;;;6159574;23;20036;-86
2021/09/23 00:15:04;;;;;;;28.50;22.35;;;14.90;91.30;;;;;;6158652;23;20023;-84
2021/09/23 00:17:30;;;;;;;23.63;19.02;;;14.90;91.00;;;;;;6159004;23;20161;-84
2021/09/23 00:19:55;;;;;;;30.95;23.08;;;14.90;91.40;;;;;;6159272;23;20017;-85
2021/09/23 00:22:21;;;;;;;26.05;19.92;;;14.80;91.00;;;;;;6158670;23;20017;-85
2021/09/23 00:24:47;;;;;;;29.40;22.67;;;14.80;91.30;;;;;;6159620;23;20415;-85
2021/09/23 00:27:12;;;;;;;24.55;20.02;;;14.80;91.20;;;;;;6159787;23;20028;-85
2021/09/23 00:29:38;;;;;;;24.75;20.00;;;14.70;91.50;;;;;;6158611;23;20017;-84
2021/09/23 00:32:04;;;;;;;25.30;19.95;;;14.70;91.30;;;;;;6160065;23;20068;-84
2021/09/23 00:34:30;;;;;;;31.27;21.50;;;14.70;91.40;;;;;;6159420;23;20013;-84
2021/09/23 00:36:57;;;;;;;25.40;20.60;;;14.70;91.30;;;;;;6158642;23;20095;-84
2021/09/23 00:39:23;;;;;;;24.60;20.05;;;14.60;91.00;;;;;;6159661;23;20048;-85
2021/09/23 00:41:50;;;;;;;30.02;22.80;;;14.60;90.90;;;;;;6159557;23;20509;-85
2021/09/23 00:44:19;;;;;;;29.17;21.85;;;14.60;91.10;;;;;;6159133;23;20445;-84
2021/09/23 00:46:46;;;;;;;27.15;20.52;;;14.60;90.90;;;;;;6159735;23;20370;-85
2021/09/23 00:49:12;;;;;;;28.15;22.00;;;14.60;91.10;;;;;;6159188;23;20112;-84
2021/09/23 00:51:38;;;;;;;31.13;23.67;;;14.50;91.20;;;;;;6159243;23;20048;-85
2021/09/23 00:54:04;;;;;;;30.25;21.73;;;14.50;91.10;;;;;;6159845;23;20382;-84
2021/09/23 00:56:30;;;;;;;27.65;21.65;;;14.50;90.90;;;;;;6157562;23;20013;-85
2021/09/23 00:58:57;;;;;;;26.70;20.67;;;14.50;91.30;;;;;;6158957;23;20412;-84
2021/09/23 01:01:23;;;;;;;25.17;20.33;;;14.40;91.60;;;;;;6159118;23;20096;-85
2021/09/23 01:03:48;;;;;;;27.23;21.80;;;14.40;91.70;;;;;;6158697;23;20013;-86
2021/09/23 01:06:14;;;;;;;28.50;22.08;;;14.40;91.60;;;;;;6159823;23;20020;-85
2021/09/23 01:08:39;;;;;;;27.17;21.80;;;14.40;91.70;;;;;;6159478;23;20005;-84
2021/09/23 01:11:05;;;;;;;28.10;21.00;;;14.40;91.80;;;;;;6159104;23;20079;-85
2021/09/23 01:13:31;;;;;;;29.38;22.42;;;14.40;91.70;;;;;;6159420;23;20380;-85
2021/09/23 01:15:57;;;;;;;30.38;22.45;;;14.30;91.60;;;;;;6159670;23;20108;-85
2021/09/23 01:18:23;;;;;;;28.70;21.75;;;14.30;91.60;;;;;;6160500;23;20016;-85
2021/09/23 01:20:49;;;;;;;27.27;21.40;;;14.30;91.50;;;;;;6161723;23;20020;-85
2021/09/23 01:23:16;;;;;;;31.83;22.58;;;14.30;91.50;;;;;;6161528;23;20017;-85
2021/09/23 01:25:41;;;;;;;25.25;21.13;;;14.30;91.60;;;;;;6159898;23;20021;-86
2021/09/23 01:28:07;;;;;;;26.17;21.15;;;14.30;91.50;;;;;;6161736;23;20071;-85
2021/09/23 01:30:33;;;;;;;27.77;21.88;;;14.20;91.60;;;;;;6160443;23;20017;-85
2021/09/23 01:33:13;;;;;;;30.08;21.73;;;14.20;91.60;;;;;;6160640;23;20021;-84
2021/09/23 01:35:39;;;;;;;29.88;22.80;;;14.20;91.80;;;;;;6160621;23;20013;-85
2021/09/23 01:38:07;;;;;;;30.00;23.45;;;14.10;91.60;;;;;;6161498;23;20389;-84
2021/09/23 01:40:37;;;;;;;26.20;19.90;;;14.10;91.50;;;;;;6160685;23;20460;-84
2021/09/23 01:43:02;;;;;;;29.00;23.58;;;14.10;91.50;;;;;;6160761;23;20024;-84
2021/09/23 01:45:28;;;;;;;30.63;23.27;;;14.10;91.50;;;;;;6160354;23;20013;-84
2021/09/23 01:47:53;;;;;;;34.13;23.00;;;14.10;91.60;;;;;;6161023;23;20438;-85
2021/09/23 01:50:19;;;;;;;26.95;21.95;;;14.10;91.60;;;;;;6161154;23;20017;-85
2021/09/23 01:52:45;;;;;;;32.22;23.63;;;14.00;91.60;;;;;;6159766;23;20556;-85
2021/09/23 01:55:11;;;;;;;27.63;21.75;;;14.00;91.70;;;;;;6161129;23;20040;-84
2021/09/23 01:57:37;;;;;;;34.03;23.20;;;14.00;91.80;;;;;;6135907;23;20345;-85
2021/09/23 02:00:04;;;;;;;35.50;25.42;;;14.00;91.60;;;;;;6160259;23;20032;-85
2021/09/23 02:02:30;;;;;;;28.63;22.17;;;13.90;91.40;;;;;;6159435;23;20319;-85
2021/09/23 02:04:56;;;;;;;30.50;22.92;;;13.90;91.60;;;;;;6160883;23;20112;-85
2021/09/23 02:07:22;;;;;;;31.23;23.55;;;13.90;91.60;;;;;;6159695;23;20013;-84
2021/09/23 02:09:48;;;;;;;27.10;21.73;;;13.90;91.80;;;;;;6160345;23;20055;-84
2021/09/23 02:12:14;;;;;;;33.42;24.88;;;13.90;91.60;;;;;;6160093;23;20382;-84
2021/09/23 02:14:39;;;;;;;36.88;24.27;;;13.80;91.50;;;;;;6159896;23;20013;-85
2021/09/23 02:17:05;;;;;;;32.03;23.58;;;13.80;91.50;;;;;;6160617;23;20017;-85
2021/09/23 02:19:31;;;;;;;33.78;24.70;;;13.80;91.70;;;;;;6160641;23;20023;-85
2021/09/23 02:21:57;;;;;;;38.22;25.23;;;13.80;91.60;;;;;;6159701;23;20024;-85
2021/09/23 02:24:26;;;;;;;32.55;22.80;;;13.70;91.40;;;;;;6160687;23;20017;-85
2021/09/23 02:26:51;;;;;;;34.40;23.35;;;13.70;91.50;;;;;;6160401;23;20088;-85
2021/09/23 02:29:17;;;;;;;36.45;25.20;;;13.70;91.60;;;;;;6159659;23;20524;-85
2021/09/23 02:31:42;;;;;;;35.28;25.45;;;13.70;91.60;;;;;;6160155;23;20020;-85
2021/09/23 02:34:08;;;;;;;31.80;23.27;;;13.70;91.50;;;;;;6161014;23;20040;-84
2021/09/23 02:36:33;;;;;;;36.97;25.52;;;13.70;91.70;;;;;;6159678;23;20020;-85
2021/09/23 02:38:59;;;;;;;30.60;22.45;;;13.60;91.70;;;;;;6160968;23;20070;-85
2021/09/23 02:41:28;;;;;;;32.78;24.83;;;13.70;91.80;;;;;;6160672;23;20530;-85
2021/09/23 02:43:54;;;;;;;33.33;24.42;;;13.60;91.70;;;;;;6160288;23;20028;-86
2021/09/23 02:46:20;;;;;;;38.83;26.23;;;13.60;91.80;;;;;;6160942;23;20064;-85
2021/09/23 02:48:45;;;;;;;35.33;24.65;;;13.60;91.60;;;;;;6159387;23;20017;-85
2021/09/23 02:51:11;;;;;;;35.55;25.05;;;13.60;91.70;;;;;;6161303;23;20018;-86
2021/09/23 02:53:37;;;;;;;32.35;23.25;;;13.60;91.70;;;;;;6160496;23;20105;-85
2021/09/23 02:56:03;;;;;;;34.53;24.50;;;13.50;91.70;;;;;;6159667;23;20017;-84
2021/09/23 02:58:34;;;;;;;31.88;23.85;;;13.60;91.90;;;;;;6152551;23;20032;-86
2021/09/23 03:14:39;;;;;;;34.63;23.63;;;13.40;91.40;;;;;;6156104;23;20016;-85
2021/09/23 03:21:05;;;;;;;35.65;24.55;;;13.30;91.40;;;;;;6064296;23;20202;-85
2021/09/23 03:23:30;;;;;;;38.33;25.85;;;13.40;91.70;;;;;;6071497;23;20018;-84
2021/09/23 03:26:04;;;;;;;33.15;24.58;;;13.40;91.80;;;;;;6070983;23;20041;-85
2021/09/23 03:28:30;;;;;;;;;;;13.40;91.90;;;;;;6072517;23;20101;-83
2021/09/23 03:30:57;;;;;;;40.05;25.15;;;13.30;91.30;;;;;;6078969;23;19945;-85
2021/09/23 03:33:24;;;;;;;36.15;24.92;;;13.30;91.90;;;;;;6155167;23;20014;-84
2021/09/23 03:35:50;;;;;;;32.83;25.17;;;13.30;92.00;;;;;;6155385;23;20021;-84
2021/09/23 03:38:16;;;;;;;37.78;25.90;;;13.30;92.00;;;;;;6154227;23;20009;-84
2021/09/23 03:40:45;;;;;;;41.92;27.55;;;13.30;92.00;;;;;;6154782;23;20018;-84
2021/09/23 03:43:15;;;;;;;35.67;24.70;;;13.30;92.10;;;;;;6154871;23;20021;-84
2021/09/23 03:45:41;;;;;;;37.38;25.52;;;13.30;92.20;;;;;;6154014;23;20010;-85
2021/09/23 03:48:07;;;;;;;38.88;27.15;;;13.30;92.20;;;;;;6155226;23;20041;-85
2021/09/23 03:50:33;;;;;;;35.95;25.38;;;13.30;92.00;;;;;;6154988;23;20521;-84
2021/09/23 03:52:59;;;;;;;38.53;26.65;;;13.30;92.00;;;;;;6158899;23;20049;-84
2021/09/23 03:55:24;;;;;;;37.05;25.75;;;13.30;92.10;;;;;;6160052;23;20013;-85
2021/09/23 03:57:50;;;;;;;33.45;23.45;;;13.30;92.10;;;;;;6160185;23;20447;-84
2021/09/23 04:00:20;;;;;;;41.85;28.08;;;13.30;92.00;;;;;;6158787;23;20017;-85
2021/09/23 04:02:46;;;;;;;38.00;27.30;;;13.30;92.10;;;;;;6160349;23;20438;-85
2021/09/23 04:05:12;;;;;;;33.35;25.17;;;13.30;92.10;;;;;;6159899;23;20013;-84
2021/09/23 04:07:38;;;;;;;37.30;25.67;;;13.30;92.00;;;;;;6158724;23;20060;-84
2021/09/23 04:10:05;;;;;;;39.78;27.00;;;13.30;92.20;;;;;;6159833;23;20021;-84
2021/09/23 04:12:30;;;;;;;37.30;26.90;;;13.30;92.30;;;;;;6159146;23;20024;-84
2021/09/23 04:14:56;;;;;;;39.85;27.50;;;13.30;92.30;;;;;;6159381;23;20013;-85
2021/09/23 04:17:23;;;;;;;45.65;30.30;;;13.30;92.30;;;;;;6160592;23;20463;-84
2021/09/23 04:19:49;;;;;;;37.15;24.90;;;13.30;92.40;;;;;;6160240;23;20017;-84
2021/09/23 04:22:17;;;;;;;37.92;26.85;;;13.30;92.50;;;;;;6158917;23;20048;-84
2021/09/23 04:24:43;;;;;;;37.22;25.85;;;13.30;92.50;;;;;;6159490;23;20021;-84
2021/09/23 04:27:08;;;;;;;38.50;27.25;;;13.30;92.60;;;;;;6159019;23;20176;-84
2021/09/23 04:29:34;;;;;;;41.50;30.17;;;13.40;92.90;;;;;;6158641;23;20024;-83
2021/09/23 04:32:00;;;;;;;46.92;31.05;;;13.40;92.90;;;;;;6159236;23;20017;-84
2021/09/23 04:34:26;;;;;;;39.85;26.88;;;13.40;93.10;;;;;;6152868;23;20027;-84
2021/09/23 04:42:08;;;;;;;37.13;25.52;;;13.40;93.10;;;;;;6155929;23;20016;-84
2021/09/23 04:48:32;;;;;;;45.00;30.48;;;13.40;93.00;;;;;;5984435;23;20019;-84
2021/09/23 04:52:01;;;;;;;37.28;25.80;;;13.40;93.10;;;;;;5985287;23;20501;-84
2021/09/23 04:54:37;;;;;;;40.35;29.23;;;13.50;92.90;;;;;;5931546;24;20020;-84
2021/09/23 04:57:35;;;;;;;41.10;28.05;;;13.50;93.10;;;;;;5931052;24;20020;-84
2021/09/23 05:00:13;;;;;;;42.10;30.52;;;13.50;93.10;;;;;;5931308;24;20062;-84
2021/09/23 05:02:44;;;;;;;41.70;28.83;;;13.50;93.20;;;;;;5933184;23;20028;-84
2021/09/23 05:05:12;;;;;;;38.15;26.90;;;13.50;93.10;;;;;;5986986;23;20020;-84
2021/09/23 05:07:59;;;;;;;49.85;32.50;;;13.50;93.00;;;;;;6068387;23;20028;-84
2021/09/23 05:10:28;;;;;;;36.25;25.63;;;13.50;93.40;;;;;;6127783;23;20021;-83
2021/09/23 05:12:56;;;;;;;44.58;31.85;;;13.60;93.00;;;;;;6131757;23;20022;-84
2021/09/23 05:15:22;;;;;;;40.25;28.05;;;13.60;93.30;;;;;;6131982;23;20494;-84
2021/09/23 05:17:50;;;;;;;52.90;31.88;;;13.60;93.50;;;;;;6131013;23;20025;-84
2021/09/23 05:20:16;;;;;;;44.30;31.00;;;13.60;93.70;;;;;;6131587;23;20060;-84
2021/09/23 05:22:42;;;;;;;46.53;31.33;;;13.60;93.90;;;;;;6131646;23;20024;-83
2021/09/23 05:25:08;;;;;;;52.58;34.55;;;13.70;93.80;;;;;;6130100;23;20052;-83
2021/09/23 05:27:34;;;;;;;52.80;34.63;;;13.70;94.20;;;;;;6120160;23;20024;-84
2021/09/23 05:30:00;;;;;;;47.65;31.67;;;13.70;94.50;;;;;;6127101;23;20346;-83
2021/09/23 05:32:27;;;;;;;47.58;31.73;;;13.70;94.40;;;;;;6128976;23;20041;-84
2021/09/23 05:34:53;;;;;;;41.47;28.70;;;13.70;94.20;;;;;;6130940;23;20017;-83
2021/09/23 05:37:19;;;;;;;40.92;28.98;;;13.70;94.00;;;;;;6130505;23;20045;-84
2021/09/23 05:39:44;;;;;;;47.42;31.20;;;13.70;93.90;;;;;;6130723;23;20355;-84
2021/09/23 05:42:10;;;;;;;39.75;27.23;;;13.70;93.80;;;;;;6131263;23;20009;-84
2021/09/23 05:44:36;;;;;;;48.20;31.33;;;13.80;93.60;;;;;;6130975;23;20766;-92
2021/09/23 05:47:02;;;;;;;43.30;28.88;;;13.70;93.80;;;;;;6134129;23;20013;-92
2021/09/23 05:49:30;;;;;;;44.10;31.10;;;13.70;93.80;;;;;;6133857;23;20021;-92
2021/09/23 05:52:30;;;;;;;;;;;;;;;;;;;;;
2021/09/23 05:55:40;;;;;;;40.15;28.92;;;13.80;93.60;;;;;;6143754;23;20098;-89
2021/09/23 06:16:45;;;;;;;47.70;30.77;;;13.60;93.70;;;;;;6158370;23;20016;-88
2021/09/23 06:33:28;;;;;;;50.58;31.80;;;13.50;94.10;;;;;;6187650;23;20031;-87
2021/09/23 06:35:54;;;;;;;47.20;32.45;;;13.50;94.20;;;;;;6160273;23;20028;-87
2021/09/23 06:38:20;;;;;;;51.28;33.15;;;13.60;94.30;;;;;;6160664;23;20009;-87
2021/09/23 06:40:45;;;;;;;45.10;31.33;;;13.60;94.40;;;;;;6159607;23;20465;-87
2021/09/23 06:43:11;;;;;;;50.60;31.88;;;13.60;94.40;;;;;;6159930;23;20020;-88
2021/09/23 06:45:36;;;;;;;46.92;32.47;;;13.60;94.30;;;;;;6159663;23;20044;-86
2021/09/23 06:48:02;;;;;;;50.90;34.95;;;13.60;94.30;;;;;;6158947;23;20020;-86
2021/09/23 06:50:28;;;;;;;46.83;31.67;;;13.60;94.50;;;;;;6160330;23;20103;-87
2021/09/23 06:52:53;;;;;;;48.17;31.42;;;13.60;94.50;;;;;;6158497;23;20013;-85
2021/09/23 06:55:19;;;;;;;47.03;31.33;;;13.60;94.50;;;;;;6159806;23;20031;-86
2021/09/23 06:57:45;;;;;;;49.03;32.50;;;13.60;94.40;;;;;;6159500;23;20067;-87
2021/09/23 07:00:11;;;;;;;52.15;33.85;;;13.60;94.60;;;;;;6160036;23;20032;-86
2021/09/23 07:02:37;;;;;;;46.70;31.80;;;13.70;94.90;;;;;;6159062;23;20132;-87
2021/09/23 07:05:04;;;;;;;56.55;37.90;;;13.70;94.90;;;;;;6160213;23;20435;-87
2021/09/23 07:07:29;;;;;;;54.17;37.15;;;13.80;95.30;;;;;;6159967;23;20013;-85
2021/09/23 07:09:55;;;;;;;65.72;39.05;;;13.80;95.50;;;;;;6158562;23;20048;-86
2021/09/23 07:12:20;;;;;;;55.80;36.22;;;13.80;95.80;;;;;;6159388;23;20009;-86
2021/09/23 07:14:47;;;;;;;58.63;37.97;;;13.90;95.90;;;;;;6159053;23;20013;-86
2021/09/23 07:17:12;;;;;;;47.63;31.77;;;14.00;96.20;;;;;;6185044;23;20024;-86
2021/09/23 07:19:38;;;;;;;52.67;35.60;;;14.10;96.00;;;;;;6159140;23;20013;-87
2021/09/23 07:22:05;;;;;;;45.30;30.75;;;14.10;96.00;;;;;;6159462;23;20016;-85
2021/09/23 07:24:31;;;;;;;45.28;29.88;;;14.20;95.80;;;;;;6158311;23;20017;-86
2021/09/23 07:27:36;;;;;;;54.00;34.90;;;14.20;95.20;;;;;;6144731;23;20031;-89
2021/09/23 07:30:11;;;;;;;49.90;32.47;;;14.30;95.80;;;;;;6126476;23;20451;-86
2021/09/23 07:32:37;;;;;;;51.95;32.65;;;14.30;95.80;;;;;;6121879;23;20473;-86
2021/09/23 07:35:03;;;;;;;52.95;33.25;;;14.40;95.90;;;;;;6129907;23;20014;-87
2021/09/23 07:37:29;;;;;;;47.00;32.67;;;14.50;96.10;;;;;;6129488;23;20096;-86
2021/09/23 07:39:55;;;;;;;52.47;33.78;;;14.50;96.00;;;;;;6129220;23;20372;-85
2021/09/23 07:42:20;;;;;;;49.17;31.90;;;14.60;96.20;;;;;;6129812;23;20057;-86
2021/09/23 07:44:47;;;;;;;49.13;31.85;;;14.70;96.20;;;;;;6155009;23;20445;-86
2021/09/23 07:47:12;;;;;;;52.35;32.95;;;14.70;96.20;;;;;;6159262;23;20067;-86
2021/09/23 07:49:38;;;;;;;50.33;33.70;;;14.80;96.20;;;;;;6158671;23;20386;-85
2021/09/23 07:52:06;;;;;;;46.58;31.33;;;14.80;96.20;;;;;;6158711;23;20017;-86
2021/09/23 07:54:31;;;;;;;45.97;32.08;;;14.90;96.20;;;;;;6159057;23;20021;-85
2021/09/23 07:56:59;;;;;;;50.03;30.45;;;14.90;96.10;;;;;;6158890;23;20024;-86
2021/09/23 07:59:25;;;;;;;42.17;28.38;;;14.90;96.20;;;;;;6158413;23;20436;-85
2021/09/23 08:01:50;;;;;;;33.65;21.92;;;15.00;96.20;;;;;;6158535;23;20028;-86
2021/09/23 08:04:16;;;;;;;34.00;20.95;;;15.00;96.10;;;;;;6159698;23;20116;-86
2021/09/23 08:06:42;;;;;;;34.60;22.42;;;15.10;96.00;;;;;;6158193;23;20017;-86
2021/09/23 08:09:07;;;;;;;34.00;20.05;;;15.10;96.00;;;;;;6159624;23;20048;-87
2021/09/23 08:11:33;;;;;;;24.08;15.50;;;15.20;95.90;;;;;;6158825;23;20067;-86
2021/09/23 08:13:59;;;;;;;19.80;11.90;;;15.20;95.90;;;;;;6158262;23;20048;-86
2021/09/23 08:16:25;;;;;;;21.50;11.43;;;15.30;95.70;;;;;;6159648;23;20016;-85
2021/09/23 08:18:54;;;;;;;13.23;7.07;;;15.40;95.40;;;;;;6161901;23;20047;-91
2021/09/23 08:21:32;;;;;;;14.40;5.85;;;15.40;95.20;;;;;;6183507;23;20100;-91
2021/09/23 08:24:09;;;;;;;11.88;5.50;;;15.50;94.90;;;;;;6190689;23;20055;-90
2021/09/23 08:26:56;;;;;;;10.32;5.20;;;15.60;94.70;;;;;;6191142;23;20045;-89
2021/09/23 08:29:50;;;;;;;13.40;3.90;;;15.70;94.40;;;;;;6192300;23;20021;-90
2021/09/23 09:04:32;;;;;;;8.65;3.15;;;16.50;92.90;;;;;;6092816;23;20177;-84
2021/09/23 09:07:09;;;;;;;9.52;3.10;;;16.60;92.70;;;;;;6078906;23;20015;-85
2021/09/23 09:14:10;;;;;;;;;;;;;;;;;;;;;
2021/09/23 09:36:09;;;;;;;12.40;2.28;;;17.30;91.00;;;;;;6006847;23;20507;-86
2021/09/23 10:15:28;;;;;;;;;;;;;;;;;;;;;
2021/09/23 10:33:53;;;;;;;9.75;2.15;;;17.80;90.70;;;;;;6158773;23;20029;-86
2021/09/23 10:36:20;;;;;;;14.23;2.00;;;17.80;90.60;;;;;;6015302;23;20022;-87
2021/09/23 10:38:49;;;;;;;7.43;1.85;;;17.80;90.80;;;;;;6014367;23;20020;-86
2021/09/23 10:41:15;;;;;;;6.57;1.80;;;17.80;90.60;;;;;;6101186;23;20017;-86
2021/09/23 10:43:42;;;;;;;9.00;1.90;;;17.90;90.70;;;;;;6160006;23;20441;-86
2021/09/23 10:46:11;;;;;;;10.98;2.38;;;17.90;90.70;;;;;;6160391;23;20025;-86
2021/09/23 10:48:38;;;;;;;9.10;1.80;;;18.00;90.70;;;;;;6159840;23;20068;-85
2021/09/23 10:51:05;;;;;;;12.77;2.35;;;18.00;90.60;;;;;;6160823;23;20060;-85
2021/09/23 10:53:35;;;;;;;14.75;2.33;;;18.10;90.40;;;;;;6160995;23;20013;-86
2021/09/23 10:56:06;;;;;;;6.88;2.00;;;18.10;90.10;;;;;;6159633;23;20010;-87
2021/09/23 10:58:32;;;;;;;9.93;1.85;;;18.10;90.10;;;;;;6160652;23;20021;-86
2021/09/23 11:00:59;;;;;;;13.15;2.58;;;18.00;90.00;;;;;;6159765;23;20013;-84
2021/09/23 11:03:35;;;;;;;10.30;1.88;;;18.10;90.00;;;;;;6160368;23;20525;-85
2021/09/23 11:06:07;;;;;;;14.05;1.98;;;18.00;89.80;;;;;;6160988;23;20017;-85
2021/09/23 11:08:39;;;;;;;11.13;1.92;;;18.00;89.80;;;;;;6160158;23;20476;-90
2021/09/23 11:11:07;;;;;;;13.45;2.20;;;18.00;90.00;;;;;;6161560;23;20100;-88
2021/09/23 11:13:35;;;;;;;10.85;1.95;;;17.90;90.10;;;;;;6161166;23;20023;-90
2021/09/23 11:16:08;;;;;;;9.40;1.88;;;18.00;90.20;;;;;;6160476;23;20013;-87
2021/09/23 11:18:36;;;;;;;10.50;2.13;;;18.00;90.20;;;;;;6161076;23;20028;-88
2021/09/23 11:21:05;;;;;;;11.50;2.00;;;18.00;90.10;;;;;;6161441;23;20386;-87
2021/09/23 11:23:33;;;;;;;9.30;1.88;;;18.00;90.00;;;;;;6159869;23;20017;-89
2021/09/23 11:26:12;;;;;;;12.63;2.15;;;18.00;90.00;;;;;;6160316;23;20020;-89
2021/09/23 11:28:40;;;;;;;13.18;2.03;;;18.00;90.10;;;;;;6160658;23;20048;-86
2021/09/23 11:31:05;;;;;;;7.65;1.80;;;18.00;90.10;;;;;;6160546;23;20144;-86
2021/09/23 11:33:31;;;;;;;10.40;1.88;;;18.00;90.10;;;;;;6160459;23;20061;-85
2021/09/23 11:35:57;;;;;;;10.90;1.88;;;17.90;90.20;;;;;;6160407;23;20020;-88
2021/09/23 11:38:25;;;;;;;13.20;2.10;;;17.90;90.20;;;;;;6159828;23;20013;-88
2021/09/23 11:40:52;;;;;;;9.65;1.75;;;17.90;90.40;;;;;;6160255;23;20016;-87
2021/09/23 11:43:21;;;;;;;11.57;2.63;;;17.90;90.50;;;;;;6159008;23;20508;-86
2021/09/23 11:45:53;;;;;;;10.55;2.00;;;17.90;90.70;;;;;;6159662;23;20048;-87
2021/09/23 11:48:25;;;;;;;10.80;2.10;;;17.90;90.80;;;;;;6159774;23;20024;-87
2021/09/23 11:50:56;;;;;;;11.43;2.35;;;17.80;90.90;;;;;;6158914;23;20267;-87
2021/09/23 11:53:28;;;;;;;9.38;1.75;;;17.80;90.90;;;;;;6160006;23;20017;-88
2021/09/23 11:56:17;;;;;;;8.60;1.85;;;17.80;91.00;;;;;;6160176;23;20023;-87
2021/09/23 11:58:52;;;;;;;12.60;2.38;;;17.70;91.00;;;;;;6159010;23;20013;-86
2021/09/23 12:01:21;;;;;;;11.20;2.22;;;17.70;91.30;;;;;;6159669;23;20099;-87
2021/09/23 12:03:47;;;;;;;8.27;2.25;;;17.70;91.40;;;;;;6159758;23;20095;-85
2021/09/23 12:06:16;;;;;;;10.82;1.90;;;17.70;91.60;;;;;;6158670;23;20386;-86
2021/09/23 12:08:41;;;;;;;9.23;2.08;;;17.70;91.80;;;;;;6159188;23;20404;-87
2021/09/23 12:11:12;;;;;;;16.35;2.70;;;17.70;91.90;;;;;;6158846;23;20024;-86
2021/09/23 12:13:47;;;;;;;12.13;3.03;;;17.60;92.00;;;;;;6159133;23;20040;-89
2021/09/23 12:16:20;;;;;;;12.18;2.70;;;17.60;92.50;;;;;;6159989;23;20017;-90
2021/09/23 12:18:48;;;;;;;12.10;2.50;;;17.60;92.30;;;;;;6159074;23;20017;-90
2021/09/23 12:21:17;;;;;;;11.70;2.30;;;17.60;92.50;;;;;;6160963;23;20017;-90
2021/09/23 12:23:45;;;;;;;14.50;2.95;;;17.50;92.60;;;;;;6160788;23;20072;-90
2021/09/23 12:26:16;;;;;;;11.98;2.50;;;17.60;92.80;;;;;;6159156;23;20452;-85
2021/09/23 12:28:57;;;;;;;14.70;2.60;;;17.60;92.80;;;;;;6159368;23;20060;-87
2021/09/23 12:31:44;;;;;;;15.05;2.80;;;17.60;92.90;;;;;;6160508;23;20405;-86
2021/09/23 12:34:15;;;;;;;11.85;2.47;;;17.60;92.90;;;;;;6159812;23;20020;-86
2021/09/23 12:37:05;;;;;;;12.25;2.70;;;17.60;93.00;;;;;;6160019;23;20314;-87
2021/09/23 12:39:39;;;;;;;14.93;2.67;;;17.60;93.20;;;;;;6158901;23;20040;-87
2021/09/23 12:42:28;;;;;;;19.73;3.00;;;17.60;92.90;;;;;;6160901;23;20013;-87
2021/09/23 12:44:57;;;;;;;9.25;2.42;;;17.70;93.00;;;;;;6160467;23;20021;-87
2021/09/23 12:47:25;;;;;;;10.35;2.45;;;17.70;93.10;;;;;;6159383;23;20040;-87
2021/09/23 12:49:51;;;;;;;7.70;2.25;;;17.80;93.10;;;;;;6160040;23;20044;-87
2021/09/23 12:52:23;;;;;;;13.25;2.50;;;17.80;92.90;;;;;;6160522;23;20024;-88
2021/09/23 12:55:01;;;;;;;12.53;2.30;;;17.90;93.20;;;;;;6159271;23;20386;-87
2021/09/23 12:57:35;;;;;;;11.20;2.30;;;17.90;92.90;;;;;;6159738;23;20249;-86
2021/09/23 13:00:37;;;;;;;11.18;2.47;;;18.00;92.60;;;;;;6160559;23;20512;-87
2021/09/23 13:03:05;;;;;;;12.30;2.40;;;18.10;92.20;;;;;;6150262;23;20045;-84
2021/09/23 13:05:32;;;;;;;10.27;2.20;;;18.20;92.20;;;;;;6158423;23;20028;-84
2021/09/23 13:07:58;;;;;;;10.85;2.10;;;18.20;91.80;;;;;;6157702;23;20069;-84
2021/09/23 13:10:34;;;;;;;12.00;2.28;;;18.30;91.50;;;;;;6158969;23;20072;-83
2021/09/23 13:13:07;;;;;;;8.30;1.90;;;18.30;91.10;;;;;;6159422;23;20480;-84
2021/09/23 13:18:48;;;;;;;9.15;2.47;;;18.30;90.80;;;;;;6216770;23;20020;-85
2021/09/23 13:24:37;;;;;;;12.20;2.10;;;18.30;90.80;;;;;;6071557;23;20161;-87
2021/09/23 13:27:12;;;;;;;11.63;2.22;;;18.30;90.90;;;;;;6072008;23;20057;-87
2021/09/23 13:29:37;;;;;;;10.68;2.30;;;18.30;90.90;;;;;;6150635;23;20017;-86
2021/09/23 13:32:03;;;;;;;8.70;2.08;;;18.30;90.90;;;;;;6190567;23;20475;-85
2021/09/23 13:34:29;;;;;;;12.13;2.13;;;18.30;90.90;;;;;;6190489;23;20013;-88
2021/09/23 13:36:54;;;;;;;12.77;2.15;;;18.40;90.80;;;;;;6190540;23;20345;-87
2021/09/23 13:39:20;;;;;;;12.50;2.10;;;18.40;90.70;;;;;;6190763;23;20020;-85
2021/09/23 13:41:46;;;;;;;14.48;2.42;;;18.40;90.40;;;;;;6190678;23;20016;-86
2021/09/23 13:44:11;;;;;;;17.15;2.97;;;18.40;90.20;;;;;;6189326;23;20021;-86
2021/09/23 13:46:37;;;;;;;12.38;2.13;;;18.40;90.20;;;;;;6189921;23;20012;-85
2021/09/23 13:49:03;;;;;;;12.50;2.28;;;18.40;90.10;;;;;;6217454;23;20044;-86
2021/09/23 13:51:29;;;;;;;12.85;2.88;;;18.40;89.90;;;;;;6188907;23;20322;-86
2021/09/23 13:53:55;;;;;;;9.88;2.13;;;18.30;90.20;;;;;;6190311;23;20397;-85
2021/09/23 13:56:21;;;;;;;13.05;2.20;;;18.30;89.70;;;;;;6190504;23;20047;-85
2021/09/23 13:58:47;;;;;;;12.07;2.00;;;18.30;90.00;;;;;;6189303;23;20448;-85
2021/09/23 14:01:13;;;;;;;10.75;2.33;;;18.30;90.10;;;;;;6190260;23;20023;-83
2021/09/23 14:03:38;;;;;;;12.52;2.42;;;18.20;90.10;;;;;;6189592;23;20009;-86
2021/09/23 14:06:04;;;;;;;13.80;2.40;;;18.20;90.20;;;;;;6190123;23;20016;-87
2021/09/23 14:08:29;;;;;;;15.50;2.70;;;18.20;90.30;;;;;;6190368;23;20016;-85
2021/09/23 14:10:55;;;;;;;11.02;2.20;;;18.20;90.40;;;;;;6188682;23;20017;-86
2021/09/23 14:13:21;;;;;;;14.60;2.60;;;18.20;90.50;;;;;;6190767;23;20020;-85
2021/09/23 14:15:47;;;;;;;9.88;2.22;;;18.20;90.40;;;;;;6190323;23;20353;-85
2021/09/23 14:18:13;;;;;;;11.27;2.30;;;18.20;90.30;;;;;;6189636;23;20027;-85
2021/09/23 14:20:42;;;;;;;12.65;2.58;;;18.20;90.30;;;;;;6190160;23;20051;-86
2021/09/23 14:23:08;;;;;;;15.00;2.70;;;18.10;90.40;;;;;;6190941;23;20013;-86
2021/09/23 14:25:34;;;;;;;10.82;2.03;;;18.10;90.30;;;;;;6189204;23;20392;-87
2021/09/23 14:28:01;;;;;;;12.38;2.30;;;18.10;90.30;;;;;;6191031;23;20012;-92
2021/09/23 14:30:27;;;;;;;10.50;2.20;;;18.10;90.20;;;;;;6190679;23;20051;-91
2021/09/23 14:32:52;;;;;;;12.82;2.53;;;18.10;90.20;;;;;;6190389;23;20017;-90
2021/09/23 14:35:18;;;;;;;11.68;2.35;;;18.10;90.30;;;;;;6191142;23;20064;-90
2021/09/23 14:37:44;;;;;;;15.50;2.80;;;18.10;90.30;;;;;;6190521;23;20017;-89
2021/09/23 14:40:10;;;;;;;10.88;2.30;;;18.10;90.30;;;;;;6189890;23;20449;-88
2021/09/23 14:42:36;;;;;;;11.63;2.40;;;18.00;90.30;;;;;;6190492;23;20027;-90
2021/09/23 14:45:02;;;;;;;14.98;2.80;;;18.10;90.40;;;;;;6190284;23;20099;-89
2021/09/23 14:47:28;;;;;;;10.70;2.25;;;18.10;90.40;;;;;;6189213;23;20019;-88
2021/09/23 14:49:54;;;;;;;12.95;2.40;;;18.10;90.30;;;;;;6190694;23;20017;-89
2021/09/23 14:52:20;;;;;;;11.10;2.22;;;18.10;90.30;;;;;;6190181;23;20013;-85
2021/09/23 14:54:46;;;;;;;13.18;2.65;;;18.10;90.40;;;;;;6188808;23;20337;-86
2021/09/23 14:57:14;;;;;;;13.82;2.17;;;18.00;90.40;;;;;;6189935;23;20322;-85
2021/09/23 14:59:39;;;;;;;16.73;2.50;;;18.10;90.40;;;;;;6189546;23;20065;-84
2021/09/23 15:02:05;;;;;;;9.65;1.92;;;18.00;90.50;;;;;;6188976;23;20108;-85
2021/09/23 15:04:32;;;;;;;14.82;2.80;;;18.00;90.60;;;;;;6189872;23;20070;-84
2021/09/23 15:06:58;;;;;;;12.70;2.28;;;18.10;90.60;;;;;;6189497;23;20013;-84
2021/09/23 15:09:23;;;;;;;15.70;2.38;;;18.00;90.60;;;;;;6189930;23;20414;-85
2021/09/23 15:18:39;;;;;;;;;;;;;;;;;;;;;
2021/09/23 15:21:13;;;;;;;12.15;2.03;;;18.00;90.50;;;;;;5910325;23;20410;-85
2021/09/23 15:23:45;;;;;;;17.80;2.58;;;18.00;90.70;;;;;;6069494;23;20054;-85
2021/09/23 15:26:10;;;;;;;10.15;2.20;;;18.00;90.60;;;;;;6071640;23;20082;-85
2021/09/23 15:28:36;;;;;;;14.05;2.33;;;18.00;90.70;;;;;;6070108;23;20046;-84
2021/09/23 15:31:09;;;;;;;13.45;2.38;;;18.00;90.60;;;;;;6071465;23;20069;-87
2021/09/23 15:33:36;;;;;;;12.38;2.67;;;18.00;90.60;;;;;;6071209;23;20015;-84
2021/09/23 15:36:02;;;;;;;12.90;2.65;;;18.00;90.60;;;;;;6070406;23;20054;-83
2021/09/23 15:38:29;;;;;;;10.02;2.25;;;18.00;90.60;;;;;;6087917;23;20073;-83
2021/09/23 15:40:55;;;;;;;11.35;2.10;;;18.00;90.70;;;;;;6155002;23;20326;-87
2021/09/23 15:43:22;;;;;;;11.20;2.43;;;18.00;90.90;;;;;;6153846;23;20028;-84
2021/09/23 15:45:48;;;;;;;10.93;2.35;;;18.00;91.10;;;;;;6154636;23;20023;-86
2021/09/23 15:48:14;;;;;;;12.30;2.10;;;18.00;91.10;;;;;;6154484;23;20013;-85